sensor_id;sensor_type;location;lat;lon;timestamp;temperature;humidity
38020;DHT22;23829;51.350;17.286;2023-08-24T00:02:16;29.30;41.70
38020;DHT22;23829;51.350;17.286;2023-08-24T00:04:43;29.20;41.60
38020;DHT22;23829;51.350;17.286;2023-08-24T00:07:09;29.30;41.70
38020;DHT22;23829;51.350;17.286;2023-08-24T00:09:35;29.50;41.40
38020;DHT22;23829;51.350;17.286;2023-08-24T00:12:01;29.50;41.50
38020;DHT22;23829;51.350;17.286;2023-08-24T00:14:28;29.50;41.30
38020;DHT22;23829;51.350;17.286;2023-08-24T00:16:54;29.60;41.20
38020;DHT22;23829;51.350;17.286;2023-08-24T00:19:20;29.60;40.90
38020;DHT22;23829;51.350;17.286;2023-08-24T00:21:46;29.70;41.10
38020;DHT22;23829;51.350;17.286;2023-08-24T00:24:14;29.70;41.00
38020;DHT22;23829;51.350;17.286;2023-08-24T00:26:40;29.60;41.00
38020;DHT22;23829;51.350;17.286;2023-08-24T00:29:07;29.60;41.10
38020;DHT22;23829;51.350;17.286;2023-08-24T00:31:33;29.60;41.20
38020;DHT22;23829;51.350;17.286;2023-08-24T00:34:00;29.60;41.30
38020;DHT22;23829;51.350;17.286;2023-08-24T00:36:26;29.70;41.40
38020;DHT22;23829;51.350;17.286;2023-08-24T00:38:52;29.80;41.00
38020;DHT22;23829;51.350;17.286;2023-08-24T00:41:19;29.90;40.70
38020;DHT22;23829;51.350;17.286;2023-08-24T00:43:47;30.00;40.60
38020;DHT22;23829;51.350;17.286;2023-08-24T00:46:13;30.00;40.60
38020;DHT22;23829;51.350;17.286;2023-08-24T00:48:40;30.00;40.40
38020;DHT22;23829;51.350;17.286;2023-08-24T00:51:06;30.10;40.50
38020;DHT22;23829;51.350;17.286;2023-08-24T00:53:33;30.10;40.30
38020;DHT22;23829;51.350;17.286;2023-08-24T00:56:00;30.10;40.10
38020;DHT22;23829;51.350;17.286;2023-08-24T00:58:27;30.10;40.50
38020;DHT22;23829;51.350;17.286;2023-08-24T01:00:56;30.20;40.50
38020;DHT22;23829;51.350;17.286;2023-08-24T01:03:23;30.20;40.30
38020;DHT22;23829;51.350;17.286;2023-08-24T01:05:51;30.20;40.50
38020;DHT22;23829;51.350;17.286;2023-08-24T01:08:19;30.10;40.10
38020;DHT22;23829;51.350;17.286;2023-08-24T01:16:18;30.20;39.90
38020;DHT22;23829;51.350;17.286;2023-08-24T01:18:47;30.30;39.70
38020;DHT22;23829;51.350;17.286;2023-08-24T01:21:14;30.30;39.70
38020;DHT22;23829;51.350;17.286;2023-08-24T01:26:13;30.00;40.20
38020;DHT22;23829;51.350;17.286;2023-08-24T01:28:42;30.10;39.80
38020;DHT22;23829;51.350;17.286;2023-08-24T01:31:09;30.10;39.90
38020;DHT22;23829;51.350;17.286;2023-08-24T01:33:36;30.10;39.60
38020;DHT22;23829;51.350;17.286;2023-08-24T01:36:02;30.10;39.70
38020;DHT22;23829;51.350;17.286;2023-08-24T01:38:30;30.00;40.00
38020;DHT22;23829;51.350;17.286;2023-08-24T01:41:07;30.00;39.90
38020;DHT22;23829;51.350;17.286;2023-08-24T01:43:36;30.10;39.60
38020;DHT22;23829;51.350;17.286;2023-08-24T01:46:04;30.00;39.70
38020;DHT22;23829;51.350;17.286;2023-08-24T01:48:31;29.90;39.90
38020;DHT22;23829;51.350;17.286;2023-08-24T01:51:00;29.90;40.00
38020;DHT22;23829;51.350;17.286;2023-08-24T01:53:29;29.90;40.20
38020;DHT22;23829;51.350;17.286;2023-08-24T01:55:56;29.90;40.10
38020;DHT22;23829;51.350;17.286;2023-08-24T01:58:22;30.00;39.80
38020;DHT22;23829;51.350;17.286;2023-08-24T02:00:48;29.90;39.90
38020;DHT22;23829;51.350;17.286;2023-08-24T02:03:15;29.90;40.00
38020;DHT22;23829;51.350;17.286;2023-08-24T02:05:41;29.80;40.20
38020;DHT22;23829;51.350;17.286;2023-08-24T02:08:08;29.60;40.30
38020;DHT22;23829;51.350;17.286;2023-08-24T02:10:34;29.70;40.40
38020;DHT22;23829;51.350;17.286;2023-08-24T02:13:00;29.60;40.50
38020;DHT22;23829;51.350;17.286;2023-08-24T02:15:26;29.50;40.80
38020;DHT22;23829;51.350;17.286;2023-08-24T02:17:53;29.50;40.90
38020;DHT22;23829;51.350;17.286;2023-08-24T02:20:19;29.30;40.90
38020;DHT22;23829;51.350;17.286;2023-08-24T02:22:46;29.20;41.10
38020;DHT22;23829;51.350;17.286;2023-08-24T02:25:12;29.30;41.10
38020;DHT22;23829;51.350;17.286;2023-08-24T02:27:39;29.50;41.00
38020;DHT22;23829;51.350;17.286;2023-08-24T02:30:05;29.40;40.90
38020;DHT22;23829;51.350;17.286;2023-08-24T02:32:32;29.40;41.00
38020;DHT22;23829;51.350;17.286;2023-08-24T02:34:58;29.40;40.90
38020;DHT22;23829;51.350;17.286;2023-08-24T02:37:25;29.50;41.00
38020;DHT22;23829;51.350;17.286;2023-08-24T02:39:51;29.50;40.90
38020;DHT22;23829;51.350;17.286;2023-08-24T02:42:18;29.50;41.00
38020;DHT22;23829;51.350;17.286;2023-08-24T02:44:44;29.50;40.90
38020;DHT22;23829;51.350;17.286;2023-08-24T02:47:11;29.60;40.90
38020;DHT22;23829;51.350;17.286;2023-08-24T02:49:37;29.60;41.00
38020;DHT22;23829;51.350;17.286;2023-08-24T02:52:05;29.60;41.10
38020;DHT22;23829;51.350;17.286;2023-08-24T02:54:31;29.60;40.80
38020;DHT22;23829;51.350;17.286;2023-08-24T02:56:57;29.60;40.90
38020;DHT22;23829;51.350;17.286;2023-08-24T02:59:23;29.50;40.90
38020;DHT22;23829;51.350;17.286;2023-08-24T03:01:50;29.50;40.90
38020;DHT22;23829;51.350;17.286;2023-08-24T03:04:16;29.50;40.90
38020;DHT22;23829;51.350;17.286;2023-08-24T03:06:44;29.60;41.00
38020;DHT22;23829;51.350;17.286;2023-08-24T03:09:11;29.40;41.10
38020;DHT22;23829;51.350;17.286;2023-08-24T03:11:38;29.30;41.40
38020;DHT22;23829;51.350;17.286;2023-08-24T03:14:04;29.40;41.40
38020;DHT22;23829;51.350;17.286;2023-08-24T03:16:31;29.50;41.20
38020;DHT22;23829;51.350;17.286;2023-08-24T03:18:57;29.60;41.00
38020;DHT22;23829;51.350;17.286;2023-08-24T03:21:24;29.60;40.80
38020;DHT22;23829;51.350;17.286;2023-08-24T03:23:50;29.60;40.90
38020;DHT22;23829;51.350;17.286;2023-08-24T03:26:19;29.50;41.00
38020;DHT22;23829;51.350;17.286;2023-08-24T03:28:46;29.50;41.10
38020;DHT22;23829;51.350;17.286;2023-08-24T03:31:13;29.60;40.80
38020;DHT22;23829;51.350;17.286;2023-08-24T03:33:39;29.50;40.80
38020;DHT22;23829;51.350;17.286;2023-08-24T03:36:06;29.50;40.80
38020;DHT22;23829;51.350;17.286;2023-08-24T03:38:32;29.50;40.80
38020;DHT22;23829;51.350;17.286;2023-08-24T03:41:02;29.40;41.00
38020;DHT22;23829;51.350;17.286;2023-08-24T03:43:32;29.30;41.20
38020;DHT22;23829;51.350;17.286;2023-08-24T03:46:00;29.30;41.30
38020;DHT22;23829;51.350;17.286;2023-08-24T03:48:27;29.40;41.00
38020;DHT22;23829;51.350;17.286;2023-08-24T03:50:54;29.50;41.10
38020;DHT22;23829;51.350;17.286;2023-08-24T03:53:22;29.30;41.30
38020;DHT22;23829;51.350;17.286;2023-08-24T03:55:50;29.30;41.20
38020;DHT22;23829;51.350;17.286;2023-08-24T03:58:18;29.20;41.40
38020;DHT22;23829;51.350;17.286;2023-08-24T04:00:45;29.30;41.50
38020;DHT22;23829;51.350;17.286;2023-08-24T04:03:12;29.30;41.50
38020;DHT22;23829;51.350;17.286;2023-08-24T04:05:39;29.30;42.10
38020;DHT22;23829;51.350;17.286;2023-08-24T04:08:05;29.30;41.70
38020;DHT22;23829;51.350;17.286;2023-08-24T04:10:32;29.30;41.60
38020;DHT22;23829;51.350;17.286;2023-08-24T04:12:58;29.20;41.80
38020;DHT22;23829;51.350;17.286;2023-08-24T04:15:25;29.20;42.00
38020;DHT22;23829;51.350;17.286;2023-08-24T04:17:51;29.30;42.00
38020;DHT22;23829;51.350;17.286;2023-08-24T04:20:17;29.20;42.30
38020;DHT22;23829;51.350;17.286;2023-08-24T04:22:43;29.20;42.30
38020;DHT22;23829;51.350;17.286;2023-08-24T04:25:09;29.20;42.10
38020;DHT22;23829;51.350;17.286;2023-08-24T04:27:36;29.30;42.20
38020;DHT22;23829;51.350;17.286;2023-08-24T04:30:03;29.40;42.20
38020;DHT22;23829;51.350;17.286;2023-08-24T04:32:32;29.30;42.10
38020;DHT22;23829;51.350;17.286;2023-08-24T04:34:58;29.50;42.10
38020;DHT22;23829;51.350;17.286;2023-08-24T04:37:24;29.40;42.10
38020;DHT22;23829;51.350;17.286;2023-08-24T04:39:51;29.40;42.30
38020;DHT22;23829;51.350;17.286;2023-08-24T04:42:17;29.30;42.70
38020;DHT22;23829;51.350;17.286;2023-08-24T04:44:43;29.40;42.40
38020;DHT22;23829;51.350;17.286;2023-08-24T04:47:10;29.40;42.70
38020;DHT22;23829;51.350;17.286;2023-08-24T04:49:36;29.30;42.80
38020;DHT22;23829;51.350;17.286;2023-08-24T04:52:03;29.50;42.80
38020;DHT22;23829;51.350;17.286;2023-08-24T04:54:30;29.50;42.50
38020;DHT22;23829;51.350;17.286;2023-08-24T04:56:57;29.60;42.80
38020;DHT22;23829;51.350;17.286;2023-08-24T04:59:23;29.60;42.50
38020;DHT22;23829;51.350;17.286;2023-08-24T05:01:49;29.70;43.10
38020;DHT22;23829;51.350;17.286;2023-08-24T05:04:15;29.60;42.70
38020;DHT22;23829;51.350;17.286;2023-08-24T05:06:42;29.70;43.20
38020;DHT22;23829;51.350;17.286;2023-08-24T05:09:08;29.90;43.30
38020;DHT22;23829;51.350;17.286;2023-08-24T05:11:34;29.80;43.20
38020;DHT22;23829;51.350;17.286;2023-08-24T05:14:00;29.90;43.40
38020;DHT22;23829;51.350;17.286;2023-08-24T05:16:27;29.80;43.70
38020;DHT22;23829;51.350;17.286;2023-08-24T05:18:53;29.90;43.60
38020;DHT22;23829;51.350;17.286;2023-08-24T05:21:20;29.70;43.80
38020;DHT22;23829;51.350;17.286;2023-08-24T05:23:46;29.90;44.10
38020;DHT22;23829;51.350;17.286;2023-08-24T05:26:12;30.00;44.10
38020;DHT22;23829;51.350;17.286;2023-08-24T05:28:39;30.10;44.20
38020;DHT22;23829;51.350;17.286;2023-08-24T05:31:05;30.10;43.90
38020;DHT22;23829;51.350;17.286;2023-08-24T05:33:31;30.20;44.10
38020;DHT22;23829;51.350;17.286;2023-08-24T05:35:59;30.10;44.10
38020;DHT22;23829;51.350;17.286;2023-08-24T05:38:25;30.20;44.30
38020;DHT22;23829;51.350;17.286;2023-08-24T05:40:52;30.20;44.00
38020;DHT22;23829;51.350;17.286;2023-08-24T05:43:18;30.20;43.90
38020;DHT22;23829;51.350;17.286;2023-08-24T05:45:45;30.60;43.20
38020;DHT22;23829;51.350;17.286;2023-08-24T05:48:12;30.50;43.30
38020;DHT22;23829;51.350;17.286;2023-08-24T05:50:48;30.60;43.30
38020;DHT22;23829;51.350;17.286;2023-08-24T05:53:14;30.60;43.10
38020;DHT22;23829;51.350;17.286;2023-08-24T05:55:41;30.80;42.80
38020;DHT22;23829;51.350;17.286;2023-08-24T05:58:07;30.80;42.90
38020;DHT22;23829;51.350;17.286;2023-08-24T06:00:34;31.00;42.70
38020;DHT22;23829;51.350;17.286;2023-08-24T06:03:00;30.90;43.00
38020;DHT22;23829;51.350;17.286;2023-08-24T06:05:27;31.10;42.10
38020;DHT22;23829;51.350;17.286;2023-08-24T06:07:53;31.00;42.50
38020;DHT22;23829;51.350;17.286;2023-08-24T06:10:20;31.30;42.30
38020;DHT22;23829;51.350;17.286;2023-08-24T06:12:47;31.20;42.60
38020;DHT22;23829;51.350;17.286;2023-08-24T06:15:13;31.30;42.90
38020;DHT22;23829;51.350;17.286;2023-08-24T06:17:40;31.50;41.80
38020;DHT22;23829;51.350;17.286;2023-08-24T06:20:07;31.90;40.80
38020;DHT22;23829;51.350;17.286;2023-08-24T06:22:36;31.80;40.40
38020;DHT22;23829;51.350;17.286;2023-08-24T06:25:02;31.80;41.00
38020;DHT22;23829;51.350;17.286;2023-08-24T06:27:31;31.90;40.70
38020;DHT22;23829;51.350;17.286;2023-08-24T06:29:57;32.00;40.80
38020;DHT22;23829;51.350;17.286;2023-08-24T06:32:23;32.00;40.90
38020;DHT22;23829;51.350;17.286;2023-08-24T06:34:50;32.30;40.40
38020;DHT22;23829;51.350;17.286;2023-08-24T06:37:16;32.10;40.70
38020;DHT22;23829;51.350;17.286;2023-08-24T06:39:42;32.20;40.70
38020;DHT22;23829;51.350;17.286;2023-08-24T06:42:08;32.20;40.90
38020;DHT22;23829;51.350;17.286;2023-08-24T06:44:35;32.10;40.90
38020;DHT22;23829;51.350;17.286;2023-08-24T06:47:01;32.70;39.90
38020;DHT22;23829;51.350;17.286;2023-08-24T06:49:27;32.50;40.20
38020;DHT22;23829;51.350;17.286;2023-08-24T06:51:54;32.30;40.80
38020;DHT22;23829;51.350;17.286;2023-08-24T06:54:20;32.30;41.60
38020;DHT22;23829;51.350;17.286;2023-08-24T06:56:48;32.40;41.00
38020;DHT22;23829;51.350;17.286;2023-08-24T06:59:15;32.70;40.10
38020;DHT22;23829;51.350;17.286;2023-08-24T07:01:41;32.90;39.90
38020;DHT22;23829;51.350;17.286;2023-08-24T07:04:07;33.20;40.50
38020;DHT22;23829;51.350;17.286;2023-08-24T07:06:34;33.30;40.60
38020;DHT22;23829;51.350;17.286;2023-08-24T07:09:00;33.40;39.80
38020;DHT22;23829;51.350;17.286;2023-08-24T07:11:28;33.60;40.30
38020;DHT22;23829;51.350;17.286;2023-08-24T07:13:55;33.60;40.00
38020;DHT22;23829;51.350;17.286;2023-08-24T07:16:21;33.70;39.50
38020;DHT22;23829;51.350;17.286;2023-08-24T07:18:48;33.20;40.30
38020;DHT22;23829;51.350;17.286;2023-08-24T07:21:14;33.10;40.70
38020;DHT22;23829;51.350;17.286;2023-08-24T07:23:41;33.20;40.90
38020;DHT22;23829;51.350;17.286;2023-08-24T07:26:07;33.30;40.70
38020;DHT22;23829;51.350;17.286;2023-08-24T07:28:35;33.40;40.10
38020;DHT22;23829;51.350;17.286;2023-08-24T07:31:11;33.20;39.80
38020;DHT22;23829;51.350;17.286;2023-08-24T07:33:37;32.70;40.40
38020;DHT22;23829;51.350;17.286;2023-08-24T07:36:07;32.70;40.90
38020;DHT22;23829;51.350;17.286;2023-08-24T07:38:33;32.50;41.30
38020;DHT22;23829;51.350;17.286;2023-08-24T07:40:59;32.60;41.30
38020;DHT22;23829;51.350;17.286;2023-08-24T07:43:26;32.90;41.10
38020;DHT22;23829;51.350;17.286;2023-08-24T07:45:52;33.10;41.20
38020;DHT22;23829;51.350;17.286;2023-08-24T07:48:18;33.80;39.40
38020;DHT22;23829;51.350;17.286;2023-08-24T07:50:45;33.50;39.90
38020;DHT22;23829;51.350;17.286;2023-08-24T07:53:11;33.60;40.10
38020;DHT22;23829;51.350;17.286;2023-08-24T07:55:37;33.90;39.60
38020;DHT22;23829;51.350;17.286;2023-08-24T07:58:04;33.80;39.90
38020;DHT22;23829;51.350;17.286;2023-08-24T08:00:30;33.50;39.90
38020;DHT22;23829;51.350;17.286;2023-08-24T08:02:56;34.40;38.50
38020;DHT22;23829;51.350;17.286;2023-08-24T08:05:23;33.80;39.50
38020;DHT22;23829;51.350;17.286;2023-08-24T08:07:50;33.70;39.30
38020;DHT22;23829;51.350;17.286;2023-08-24T08:10:16;33.30;40.30
38020;DHT22;23829;51.350;17.286;2023-08-24T08:12:43;32.80;40.80
38020;DHT22;23829;51.350;17.286;2023-08-24T08:15:09;32.90;41.20
38020;DHT22;23829;51.350;17.286;2023-08-24T08:17:36;33.60;40.00
38020;DHT22;23829;51.350;17.286;2023-08-24T08:20:03;33.80;40.10
38020;DHT22;23829;51.350;17.286;2023-08-24T08:22:29;33.80;40.00
38020;DHT22;23829;51.350;17.286;2023-08-24T08:24:55;33.50;40.90
38020;DHT22;23829;51.350;17.286;2023-08-24T08:27:25;33.30;40.90
38020;DHT22;23829;51.350;17.286;2023-08-24T08:29:51;33.20;40.90
38020;DHT22;23829;51.350;17.286;2023-08-24T08:32:18;33.50;39.90
38020;DHT22;23829;51.350;17.286;2023-08-24T08:34:44;33.30;40.00
38020;DHT22;23829;51.350;17.286;2023-08-24T08:37:10;33.70;39.20
38020;DHT22;23829;51.350;17.286;2023-08-24T08:39:37;33.80;39.20
38020;DHT22;23829;51.350;17.286;2023-08-24T08:42:03;33.80;39.60
38020;DHT22;23829;51.350;17.286;2023-08-24T08:44:30;33.90;39.00
38020;DHT22;23829;51.350;17.286;2023-08-24T08:46:58;33.70;39.00
38020;DHT22;23829;51.350;17.286;2023-08-24T08:49:25;33.70;38.20
38020;DHT22;23829;51.350;17.286;2023-08-24T08:51:52;35.00;36.70
38020;DHT22;23829;51.350;17.286;2023-08-24T08:54:18;35.10;36.40
38020;DHT22;23829;51.350;17.286;2023-08-24T08:56:45;35.60;34.80
38020;DHT22;23829;51.350;17.286;2023-08-24T08:59:12;35.70;33.90
38020;DHT22;23829;51.350;17.286;2023-08-24T09:01:40;35.10;35.00
38020;DHT22;23829;51.350;17.286;2023-08-24T09:04:07;34.90;36.30
38020;DHT22;23829;51.350;17.286;2023-08-24T09:06:34;35.00;36.40
38020;DHT22;23829;51.350;17.286;2023-08-24T09:09:01;35.20;36.70
38020;DHT22;23829;51.350;17.286;2023-08-24T09:11:27;35.50;36.20
38020;DHT22;23829;51.350;17.286;2023-08-24T09:13:54;35.50;35.80
38020;DHT22;23829;51.350;17.286;2023-08-24T09:16:20;35.30;36.30
38020;DHT22;23829;51.350;17.286;2023-08-24T09:18:47;35.40;33.80
38020;DHT22;23829;51.350;17.286;2023-08-24T09:21:15;35.20;33.00
38020;DHT22;23829;51.350;17.286;2023-08-24T09:24:00;35.30;34.30
38020;DHT22;23829;51.350;17.286;2023-08-24T09:26:37;35.50;34.60
38020;DHT22;23829;51.350;17.286;2023-08-24T09:29:15;35.50;34.00
38020;DHT22;23829;51.350;17.286;2023-08-24T09:31:42;35.60;34.40
38020;DHT22;23829;51.350;17.286;2023-08-24T09:34:12;35.20;34.90
38020;DHT22;23829;51.350;17.286;2023-08-24T09:36:39;35.40;34.80
38020;DHT22;23829;51.350;17.286;2023-08-24T09:39:05;35.80;33.90
38020;DHT22;23829;51.350;17.286;2023-08-24T09:41:50;35.10;34.90
38020;DHT22;23829;51.350;17.286;2023-08-24T09:44:19;35.60;35.20
38020;DHT22;23829;51.350;17.286;2023-08-24T09:46:46;35.90;34.20
38020;DHT22;23829;51.350;17.286;2023-08-24T09:49:12;35.90;33.90
38020;DHT22;23829;51.350;17.286;2023-08-24T09:51:40;35.60;34.80
38020;DHT22;23829;51.350;17.286;2023-08-24T09:54:08;35.50;35.30
38020;DHT22;23829;51.350;17.286;2023-08-24T09:56:37;35.40;35.40
38020;DHT22;23829;51.350;17.286;2023-08-24T09:59:14;35.40;34.60
38020;DHT22;23829;51.350;17.286;2023-08-24T10:01:47;35.80;33.80
38020;DHT22;23829;51.350;17.286;2023-08-24T10:04:15;36.00;34.00
38020;DHT22;23829;51.350;17.286;2023-08-24T10:06:45;35.80;34.80
38020;DHT22;23829;51.350;17.286;2023-08-24T10:09:24;35.10;35.80
38020;DHT22;23829;51.350;17.286;2023-08-24T10:11:56;35.20;36.00
38020;DHT22;23829;51.350;17.286;2023-08-24T10:14:29;34.70;36.30
38020;DHT22;23829;51.350;17.286;2023-08-24T10:16:58;35.20;35.20
38020;DHT22;23829;51.350;17.286;2023-08-24T10:19:24;35.60;35.70
38020;DHT22;23829;51.350;17.286;2023-08-24T10:21:53;35.50;35.40
38020;DHT22;23829;51.350;17.286;2023-08-24T10:24:23;35.80;35.00
38020;DHT22;23829;51.350;17.286;2023-08-24T10:26:50;35.90;34.90
38020;DHT22;23829;51.350;17.286;2023-08-24T10:29:17;35.80;34.30
38020;DHT22;23829;51.350;17.286;2023-08-24T10:31:44;35.50;34.30
38020;DHT22;23829;51.350;17.286;2023-08-24T10:34:10;35.70;34.50
38020;DHT22;23829;51.350;17.286;2023-08-24T10:36:40;36.10;34.30
38020;DHT22;23829;51.350;17.286;2023-08-24T10:39:07;36.50;32.70
38020;DHT22;23829;51.350;17.286;2023-08-24T10:41:47;36.60;32.60
38020;DHT22;23829;51.350;17.286;2023-08-24T10:44:33;36.70;31.10
38020;DHT22;23829;51.350;17.286;2023-08-24T10:47:07;36.70;31.80
38020;DHT22;23829;51.350;17.286;2023-08-24T10:49:33;36.10;33.30
38020;DHT22;23829;51.350;17.286;2023-08-24T10:52:19;36.00;33.40
38020;DHT22;23829;51.350;17.286;2023-08-24T10:54:47;36.60;34.10
38020;DHT22;23829;51.350;17.286;2023-08-24T10:57:25;36.70;33.00
38020;DHT22;23829;51.350;17.286;2023-08-24T11:00:00;36.90;31.70
38020;DHT22;23829;51.350;17.286;2023-08-24T11:02:41;36.30;32.70
38020;DHT22;23829;51.350;17.286;2023-08-24T11:05:20;36.00;32.20
38020;DHT22;23829;51.350;17.286;2023-08-24T11:10:19;35.30;33.40
38020;DHT22;23829;51.350;17.286;2023-08-24T11:15:41;36.00;33.00
38020;DHT22;23829;51.350;17.286;2023-08-24T11:18:24;36.10;32.50
38020;DHT22;23829;51.350;17.286;2023-08-24T11:21:00;36.20;32.80
38020;DHT22;23829;51.350;17.286;2023-08-24T11:23:30;36.40;31.90
38020;DHT22;23829;51.350;17.286;2023-08-24T11:25:59;36.70;31.30
38020;DHT22;23829;51.350;17.286;2023-08-24T11:28:29;37.00;32.20
38020;DHT22;23829;51.350;17.286;2023-08-24T11:30:58;36.70;32.80
38020;DHT22;23829;51.350;17.286;2023-08-24T11:33:35;36.90;31.60
38020;DHT22;23829;51.350;17.286;2023-08-24T11:36:04;37.00;32.00
38020;DHT22;23829;51.350;17.286;2023-08-24T11:38:41;36.80;32.10
38020;DHT22;23829;51.350;17.286;2023-08-24T11:41:14;36.80;31.60
38020;DHT22;23829;51.350;17.286;2023-08-24T11:43:45;36.80;31.40
38020;DHT22;23829;51.350;17.286;2023-08-24T11:46:12;37.10;30.40
38020;DHT22;23829;51.350;17.286;2023-08-24T11:48:40;37.20;31.20
38020;DHT22;23829;51.350;17.286;2023-08-24T11:51:13;37.00;31.80
38020;DHT22;23829;51.350;17.286;2023-08-24T11:53:44;37.00;32.40
38020;DHT22;23829;51.350;17.286;2023-08-24T11:56:11;37.40;31.40
38020;DHT22;23829;51.350;17.286;2023-08-24T11:58:43;37.30;30.70
38020;DHT22;23829;51.350;17.286;2023-08-24T12:01:10;36.70;32.00
38020;DHT22;23829;51.350;17.286;2023-08-24T12:03:38;36.60;32.20
38020;DHT22;23829;51.350;17.286;2023-08-24T12:06:13;37.10;30.60
38020;DHT22;23829;51.350;17.286;2023-08-24T12:08:41;36.90;30.90
38020;DHT22;23829;51.350;17.286;2023-08-24T12:11:13;36.70;31.20
38020;DHT22;23829;51.350;17.286;2023-08-24T12:13:47;36.30;32.10
38020;DHT22;23829;51.350;17.286;2023-08-24T12:16:16;35.50;32.80
38020;DHT22;23829;51.350;17.286;2023-08-24T12:18:51;35.30;33.70
38020;DHT22;23829;51.350;17.286;2023-08-24T12:21:18;35.00;34.50
38020;DHT22;23829;51.350;17.286;2023-08-24T12:23:58;35.60;33.50
38020;DHT22;23829;51.350;17.286;2023-08-24T12:26:26;35.70;33.60
38020;DHT22;23829;51.350;17.286;2023-08-24T12:28:55;35.90;33.80
38020;DHT22;23829;51.350;17.286;2023-08-24T12:31:26;36.00;33.80
38020;DHT22;23829;51.350;17.286;2023-08-24T12:34:07;36.30;33.80
38020;DHT22;23829;51.350;17.286;2023-08-24T12:36:37;36.50;33.40
38020;DHT22;23829;51.350;17.286;2023-08-24T12:39:06;36.10;33.20
38020;DHT22;23829;51.350;17.286;2023-08-24T12:41:33;36.20;32.70
38020;DHT22;23829;51.350;17.286;2023-08-24T12:44:00;36.60;32.50
38020;DHT22;23829;51.350;17.286;2023-08-24T12:46:32;36.80;32.30
38020;DHT22;23829;51.350;17.286;2023-08-24T12:48:58;36.40;32.40
38020;DHT22;23829;51.350;17.286;2023-08-24T12:51:24;36.40;32.30
38020;DHT22;23829;51.350;17.286;2023-08-24T12:53:51;36.60;33.10
38020;DHT22;23829;51.350;17.286;2023-08-24T12:56:17;36.70;32.20
38020;DHT22;23829;51.350;17.286;2023-08-24T12:58:44;36.70;33.30
38020;DHT22;23829;51.350;17.286;2023-08-24T13:01:11;36.30;33.20
38020;DHT22;23829;51.350;17.286;2023-08-24T13:03:38;36.30;33.00
38020;DHT22;23829;51.350;17.286;2023-08-24T13:06:06;36.30;32.70
38020;DHT22;23829;51.350;17.286;2023-08-24T13:08:33;36.60;32.60
38020;DHT22;23829;51.350;17.286;2023-08-24T13:10:59;36.50;32.50
38020;DHT22;23829;51.350;17.286;2023-08-24T13:13:25;36.00;33.40
38020;DHT22;23829;51.350;17.286;2023-08-24T13:15:52;36.10;33.80
38020;DHT22;23829;51.350;17.286;2023-08-24T13:18:18;36.50;33.10
38020;DHT22;23829;51.350;17.286;2023-08-24T13:20:44;36.70;33.10
38020;DHT22;23829;51.350;17.286;2023-08-24T13:23:11;36.50;34.00
38020;DHT22;23829;51.350;17.286;2023-08-24T13:25:37;36.50;33.00
38020;DHT22;23829;51.350;17.286;2023-08-24T13:28:04;36.90;33.10
38020;DHT22;23829;51.350;17.286;2023-08-24T13:30:30;37.00;32.80
38020;DHT22;23829;51.350;17.286;2023-08-24T13:32:56;37.30;33.10
38020;DHT22;23829;51.350;17.286;2023-08-24T13:35:23;37.10;33.20
38020;DHT22;23829;51.350;17.286;2023-08-24T13:37:49;37.30;32.00
38020;DHT22;23829;51.350;17.286;2023-08-24T13:40:17;37.30;33.00
38020;DHT22;23829;51.350;17.286;2023-08-24T13:42:44;37.20;33.00
38020;DHT22;23829;51.350;17.286;2023-08-24T13:45:10;37.30;32.80
38020;DHT22;23829;51.350;17.286;2023-08-24T13:47:36;37.50;32.50
38020;DHT22;23829;51.350;17.286;2023-08-24T13:50:03;37.50;32.30
38020;DHT22;23829;51.350;17.286;2023-08-24T13:52:29;37.50;33.00
38020;DHT22;23829;51.350;17.286;2023-08-24T13:54:55;37.20;33.30
38020;DHT22;23829;51.350;17.286;2023-08-24T13:57:22;37.10;33.90
38020;DHT22;23829;51.350;17.286;2023-08-24T13:59:48;36.90;32.80
38020;DHT22;23829;51.350;17.286;2023-08-24T14:02:14;37.40;32.00
38020;DHT22;23829;51.350;17.286;2023-08-24T14:04:40;37.40;33.00
38020;DHT22;23829;51.350;17.286;2023-08-24T14:07:07;37.30;32.30
38020;DHT22;23829;51.350;17.286;2023-08-24T14:09:33;37.30;32.50
38020;DHT22;23829;51.350;17.286;2023-08-24T14:12:00;37.30;32.10
38020;DHT22;23829;51.350;17.286;2023-08-24T14:14:26;37.10;32.90
38020;DHT22;23829;51.350;17.286;2023-08-24T14:16:56;37.10;32.50
38020;DHT22;23829;51.350;17.286;2023-08-24T14:19:23;36.50;32.40
38020;DHT22;23829;51.350;17.286;2023-08-24T14:21:50;36.50;33.50
38020;DHT22;23829;51.350;17.286;2023-08-24T14:24:16;36.60;33.40
38020;DHT22;23829;51.350;17.286;2023-08-24T14:26:43;36.60;34.20
38020;DHT22;23829;51.350;17.286;2023-08-24T14:29:12;36.50;33.60
38020;DHT22;23829;51.350;17.286;2023-08-24T14:31:39;36.70;33.80
38020;DHT22;23829;51.350;17.286;2023-08-24T14:34:05;37.00;33.00
38020;DHT22;23829;51.350;17.286;2023-08-24T14:36:32;37.00;32.70
38020;DHT22;23829;51.350;17.286;2023-08-24T14:38:58;37.10;32.90
38020;DHT22;23829;51.350;17.286;2023-08-24T14:41:25;37.20;33.30
38020;DHT22;23829;51.350;17.286;2023-08-24T14:43:51;36.80;33.20
38020;DHT22;23829;51.350;17.286;2023-08-24T14:46:17;37.00;33.90
38020;DHT22;23829;51.350;17.286;2023-08-24T14:48:44;37.20;33.30
38020;DHT22;23829;51.350;17.286;2023-08-24T14:51:10;37.20;33.40
38020;DHT22;23829;51.350;17.286;2023-08-24T14:53:36;37.20;33.60
38020;DHT22;23829;51.350;17.286;2023-08-24T14:56:04;37.20;33.60
38020;DHT22;23829;51.350;17.286;2023-08-24T14:58:30;37.30;33.70
38020;DHT22;23829;51.350;17.286;2023-08-24T15:00:57;37.10;34.00
38020;DHT22;23829;51.350;17.286;2023-08-24T15:03:24;37.00;34.50
38020;DHT22;23829;51.350;17.286;2023-08-24T15:08:24;36.90;34.10
38020;DHT22;23829;51.350;17.286;2023-08-24T15:10:53;36.90;34.00
38020;DHT22;23829;51.350;17.286;2023-08-24T15:13:19;37.10;33.90
38020;DHT22;23829;51.350;17.286;2023-08-24T15:15:46;37.30;33.80
38020;DHT22;23829;51.350;17.286;2023-08-24T15:18:13;37.50;34.50
38020;DHT22;23829;51.350;17.286;2023-08-24T15:20:40;37.40;33.20
38020;DHT22;23829;51.350;17.286;2023-08-24T15:23:06;37.40;33.50
38020;DHT22;23829;51.350;17.286;2023-08-24T15:25:34;37.10;32.20
38020;DHT22;23829;51.350;17.286;2023-08-24T15:28:00;37.30;32.10
38020;DHT22;23829;51.350;17.286;2023-08-24T15:30:27;37.40;32.30
38020;DHT22;23829;51.350;17.286;2023-08-24T15:32:53;37.30;32.80
38020;DHT22;23829;51.350;17.286;2023-08-24T15:35:19;37.20;33.20